sensor_id;sensor_type;location;lat;lon;timestamp;pressure;altitude;pressure_sealevel;temperature;humidity
65557;BME280;52200;53.490;14.376;2023-06-14T00:01:44;101782.13;;;12.06;80.09
65557;BME280;52200;53.490;14.376;2023-06-14T00:04:13;101776.31;;;11.96;80.50
65557;BME280;52200;53.490;14.376;2023-06-14T00:06:41;101783.19;;;11.88;80.86
65557;BME280;52200;53.490;14.376;2023-06-14T00:09:07;101787.47;;;11.87;81.24
65557;BME280;52200;53.490;14.376;2023-06-14T00:11:33;101772.50;;;11.66;81.75
65557;BME280;52200;53.490;14.376;2023-06-14T00:13:59;101786.91;;;11.68;81.91
65557;BME280;52200;53.490;14.376;2023-06-14T00:16:24;101783.66;;;11.57;81.50
65557;BME280;52200;53.490;14.376;2023-06-14T00:18:50;101782.06;;;11.48;82.22
65557;BME280;52200;53.490;14.376;2023-06-14T00:21:17;101784.69;;;11.43;82.58
65557;BME280;52200;53.490;14.376;2023-06-14T00:23:42;101783.22;;;11.25;84.43
65557;BME280;52200;53.490;14.376;2023-06-14T00:26:08;101785.94;;;11.11;84.71
65557;BME280;52200;53.490;14.376;2023-06-14T00:28:33;101784.38;;;11.00;86.06
65557;BME280;52200;53.490;14.376;2023-06-14T00:30:58;101783.31;;;11.16;85.65
65557;BME280;52200;53.490;14.376;2023-06-14T00:33:24;101786.69;;;11.18;85.38
65557;BME280;52200;53.490;14.376;2023-06-14T00:35:50;101783.16;;;11.28;85.13
65557;BME280;52200;53.490;14.376;2023-06-14T00:38:15;101788.22;;;11.32;84.46
65557;BME280;52200;53.490;14.376;2023-06-14T00:40:40;101790.88;;;11.24;83.93
65557;BME280;52200;53.490;14.376;2023-06-14T00:43:06;101785.75;;;11.25;83.58
65557;BME280;52200;53.490;14.376;2023-06-14T00:45:31;101789.25;;;11.18;84.06
65557;BME280;52200;53.490;14.376;2023-06-14T00:48:01;101786.84;;;11.06;84.40
65557;BME280;52200;53.490;14.376;2023-06-14T00:50:28;101784.41;;;10.96;85.02
65557;BME280;52200;53.490;14.376;2023-06-14T00:52:54;101782.66;;;11.02;84.64
65557;BME280;52200;53.490;14.376;2023-06-14T00:55:20;101785.19;;;11.02;84.70
65557;BME280;52200;53.490;14.376;2023-06-14T00:57:45;101785.91;;;11.13;83.62
65557;BME280;52200;53.490;14.376;2023-06-14T01:00:11;101785.16;;;11.05;84.50
65557;BME280;52200;53.490;14.376;2023-06-14T01:02:37;101787.69;;;11.08;83.95
65557;BME280;52200;53.490;14.376;2023-06-14T01:05:03;101783.34;;;11.15;84.13
65557;BME280;52200;53.490;14.376;2023-06-14T01:10:30;101790.84;;;11.25;83.60
65557;BME280;52200;53.490;14.376;2023-06-14T01:13:19;101787.31;;;11.37;84.00
65557;BME280;52200;53.490;14.376;2023-06-14T01:15:46;101785.75;;;11.27;84.41
65557;BME280;52200;53.490;14.376;2023-06-14T01:18:12;101787.25;;;11.42;83.20
65557;BME280;52200;53.490;14.376;2023-06-14T01:20:45;101787.13;;;11.51;83.93
65557;BME280;52200;53.490;14.376;2023-06-14T01:23:15;101789.63;;;11.54;83.46
65557;BME280;52200;53.490;14.376;2023-06-14T01:25:41;101789.63;;;11.54;83.73
65557;BME280;52200;53.490;14.376;2023-06-14T01:28:10;101792.84;;;11.67;83.92
65557;BME280;52200;53.490;14.376;2023-06-14T01:30:37;101777.72;;;11.56;84.68
65557;BME280;52200;53.490;14.376;2023-06-14T01:33:04;101784.53;;;11.54;85.20
65557;BME280;52200;53.490;14.376;2023-06-14T01:35:31;101784.41;;;11.64;84.47
65557;BME280;52200;53.490;14.376;2023-06-14T01:37:57;101781.03;;;11.61;84.30
65557;BME280;52200;53.490;14.376;2023-06-14T01:40:23;101776.72;;;11.67;84.84
65557;BME280;52200;53.490;14.376;2023-06-14T01:42:50;101782.56;;;11.75;83.88
65557;BME280;52200;53.490;14.376;2023-06-14T01:45:17;101772.22;;;11.84;83.57
65557;BME280;52200;53.490;14.376;2023-06-14T01:47:44;101783.19;;;11.88;83.24
65557;BME280;52200;53.490;14.376;2023-06-14T01:50:10;101782.69;;;11.66;83.60
65557;BME280;52200;53.490;14.376;2023-06-14T01:52:37;101785.31;;;11.61;84.11
65557;BME280;52200;53.490;14.376;2023-06-14T01:55:03;101777.22;;;11.29;85.21
65557;BME280;52200;53.490;14.376;2023-06-14T01:57:29;101769.66;;;11.23;85.69
65557;BME280;52200;53.490;14.376;2023-06-14T01:59:55;101777.28;;;11.26;85.59
65557;BME280;52200;53.490;14.376;2023-06-14T02:02:20;101773.75;;;11.37;85.74
65557;BME280;52200;53.490;14.376;2023-06-14T02:04:46;101772.03;;;11.39;84.97
65557;BME280;52200;53.490;14.376;2023-06-14T02:07:13;101766.16;;;11.34;85.70
65557;BME280;52200;53.490;14.376;2023-06-14T02:09:38;101770.47;;;11.27;85.38
65557;BME280;52200;53.490;14.376;2023-06-14T02:12:04;101766.50;;;11.06;86.70
65557;BME280;52200;53.490;14.376;2023-06-14T02:14:30;101762.28;;;11.03;86.20
65557;BME280;52200;53.490;14.376;2023-06-14T02:16:55;101763.09;;;11.07;87.42
65557;BME280;52200;53.490;14.376;2023-06-14T02:19:20;101761.41;;;11.06;87.70
65557;BME280;52200;53.490;14.376;2023-06-14T02:21:46;101771.78;;;10.90;87.60
65557;BME280;52200;53.490;14.376;2023-06-14T02:24:12;101767.75;;;10.71;88.95
65557;BME280;52200;53.490;14.376;2023-06-14T02:26:37;101772.72;;;10.82;88.16
65557;BME280;52200;53.490;14.376;2023-06-14T02:29:04;101773.34;;;11.01;87.50
65557;BME280;52200;53.490;14.376;2023-06-14T02:31:31;101773.34;;;11.01;86.72
65557;BME280;52200;53.490;14.376;2023-06-14T02:33:57;101773.47;;;10.90;86.23
65557;BME280;52200;53.490;14.376;2023-06-14T02:36:22;101766.06;;;10.67;87.24
65557;BME280;52200;53.490;14.376;2023-06-14T02:38:47;101772.72;;;10.80;87.12
65557;BME280;52200;53.490;14.376;2023-06-14T02:41:13;101771.84;;;10.81;87.12
65557;BME280;52200;53.490;14.376;2023-06-14T02:43:38;101773.50;;;10.85;87.31
65557;BME280;52200;53.490;14.376;2023-06-14T02:46:04;101775.25;;;10.80;86.87
65557;BME280;52200;53.490;14.376;2023-06-14T02:48:30;101775.31;;;10.74;87.45
65557;BME280;52200;53.490;14.376;2023-06-14T02:50:55;101772.72;;;10.78;87.71
65557;BME280;52200;53.490;14.376;2023-06-14T02:53:21;101770.22;;;10.74;88.02
65557;BME280;52200;53.490;14.376;2023-06-14T02:55:47;101763.31;;;10.85;87.58
65557;BME280;52200;53.490;14.376;2023-06-14T02:58:13;101768.28;;;10.97;87.17
65557;BME280;52200;53.490;14.376;2023-06-14T03:00:39;101770.00;;;10.95;87.54
65557;BME280;52200;53.490;14.376;2023-06-14T03:03:06;101763.19;;;10.97;86.87
65557;BME280;52200;53.490;14.376;2023-06-14T03:05:39;101770.81;;;10.99;86.64
65557;BME280;52200;53.490;14.376;2023-06-14T03:08:06;101770.75;;;11.04;87.28
65557;BME280;52200;53.490;14.376;2023-06-14T03:10:32;101775.94;;;10.94;87.14
65557;BME280;52200;53.490;14.376;2023-06-14T03:12:57;101774.09;;;11.07;86.80
65557;BME280;52200;53.490;14.376;2023-06-14T03:15:23;101777.56;;;11.02;87.07
65557;BME280;52200;53.490;14.376;2023-06-14T03:17:49;101773.28;;;11.04;87.79
65557;BME280;52200;53.490;14.376;2023-06-14T03:20:16;101772.09;;;11.34;87.03
65557;BME280;52200;53.490;14.376;2023-06-14T03:22:41;101773.59;;;11.48;86.00
65557;BME280;52200;53.490;14.376;2023-06-14T03:25:07;101769.66;;;11.26;87.48
65557;BME280;52200;53.490;14.376;2023-06-14T03:27:34;101774.56;;;11.39;87.52
65557;BME280;52200;53.490;14.376;2023-06-14T03:30:00;101786.03;;;11.71;86.70
65557;BME280;52200;53.490;14.376;2023-06-14T03:32:25;101780.81;;;11.78;86.53
65557;BME280;52200;53.490;14.376;2023-06-14T03:34:51;101783.19;;;11.88;85.99
65557;BME280;52200;53.490;14.376;2023-06-14T03:37:17;101783.84;;;12.04;85.66
65557;BME280;52200;53.490;14.376;2023-06-14T03:39:43;101787.81;;;12.22;85.09
65557;BME280;52200;53.490;14.376;2023-06-14T03:42:13;101790.22;;;12.30;85.09
65557;BME280;52200;53.490;14.376;2023-06-14T03:44:38;101801.56;;;12.62;83.57
65557;BME280;52200;53.490;14.376;2023-06-14T03:47:04;101791.78;;;12.85;82.57
65557;BME280;52200;53.490;14.376;2023-06-14T03:49:30;101802.69;;;12.94;82.61
65557;BME280;52200;53.490;14.376;2023-06-14T03:51:56;101790.88;;;12.89;82.22
65557;BME280;52200;53.490;14.376;2023-06-14T03:54:22;101806.34;;;12.80;82.83
65557;BME280;52200;53.490;14.376;2023-06-14T03:56:47;101803.44;;;12.99;82.77
65557;BME280;52200;53.490;14.376;2023-06-14T03:59:12;101809.25;;;13.07;83.50
65557;BME280;52200;53.490;14.376;2023-06-14T04:01:38;101797.63;;;12.92;83.59
65557;BME280;52200;53.490;14.376;2023-06-14T04:04:11;101803.41;;;13.02;83.33
65557;BME280;52200;53.490;14.376;2023-06-14T04:06:36;101802.25;;;13.15;83.36
65557;BME280;52200;53.490;14.376;2023-06-14T04:09:02;101806.25;;;13.30;83.96
65557;BME280;52200;53.490;14.376;2023-06-14T04:11:27;101814.53;;;13.40;83.45
65557;BME280;52200;53.490;14.376;2023-06-14T04:13:53;101812.72;;;13.47;83.48
65557;BME280;52200;53.490;14.376;2023-06-14T04:16:19;101813.88;;;13.73;82.95
65557;BME280;52200;53.490;14.376;2023-06-14T04:18:44;101811.09;;;13.82;81.89
65557;BME280;52200;53.490;14.376;2023-06-14T04:21:11;101811.06;;;13.83;82.32
65557;BME280;52200;53.490;14.376;2023-06-14T04:23:37;101814.28;;;13.92;81.99
65557;BME280;52200;53.490;14.376;2023-06-14T04:26:03;101818.34;;;14.00;81.64
65557;BME280;52200;53.490;14.376;2023-06-14T04:28:28;101827.50;;;14.09;81.60
65557;BME280;52200;53.490;14.376;2023-06-14T04:30:54;101819.09;;;14.04;81.74
65557;BME280;52200;53.490;14.376;2023-06-14T04:33:19;101822.44;;;14.08;81.12
65557;BME280;52200;53.490;14.376;2023-06-14T04:35:44;101820.53;;;14.16;81.53
65557;BME280;52200;53.490;14.376;2023-06-14T04:38:12;101820.03;;;14.36;81.05
65557;BME280;52200;53.490;14.376;2023-06-14T04:40:38;101818.75;;;14.52;80.74
65557;BME280;52200;53.490;14.376;2023-06-14T04:43:08;101819.88;;;14.42;81.21
65557;BME280;52200;53.490;14.376;2023-06-14T04:45:34;101812.22;;;14.42;81.93
65557;BME280;52200;53.490;14.376;2023-06-14T04:47:59;101813.63;;;14.54;81.99
65557;BME280;52200;53.490;14.376;2023-06-14T04:50:25;101811.22;;;14.82;81.28
65557;BME280;52200;53.490;14.376;2023-06-14T04:52:50;101814.56;;;15.14;80.55
65557;BME280;52200;53.490;14.376;2023-06-14T04:55:16;101813.63;;;15.48;79.50
65557;BME280;52200;53.490;14.376;2023-06-14T04:57:44;101806.06;;;15.72;78.60
65557;BME280;52200;53.490;14.376;2023-06-14T05:00:10;101803.63;;;15.98;77.31
65557;BME280;52200;53.490;14.376;2023-06-14T05:02:36;101797.69;;;16.48;76.00
65557;BME280;52200;53.490;14.376;2023-06-14T05:05:03;101794.47;;;16.66;74.24
65557;BME280;52200;53.490;14.376;2023-06-14T05:07:29;101793.88;;;16.59;74.43
65557;BME280;52200;53.490;14.376;2023-06-14T05:09:55;101798.56;;;16.47;73.33
65557;BME280;52200;53.490;14.376;2023-06-14T05:12:20;101798.47;;;16.50;73.19
65557;BME280;52200;53.490;14.376;2023-06-14T05:14:46;101802.44;;;16.58;72.79
65557;BME280;52200;53.490;14.376;2023-06-14T05:17:11;101795.78;;;16.53;71.93
65557;BME280;52200;53.490;14.376;2023-06-14T05:19:37;101800.34;;;17.19;70.14
65557;BME280;52200;53.490;14.376;2023-06-14T05:22:02;101797.19;;;17.79;69.77
65557;BME280;52200;53.490;14.376;2023-06-14T05:24:28;101793.97;;;18.16;67.12
65557;BME280;52200;53.490;14.376;2023-06-14T05:26:56;101797.00;;;18.26;65.05
65557;BME280;52200;53.490;14.376;2023-06-14T05:29:21;101801.13;;;18.30;64.45
65557;BME280;52200;53.490;14.376;2023-06-14T05:31:47;101803.50;;;17.92;64.29
65557;BME280;52200;53.490;14.376;2023-06-14T05:34:12;101806.81;;;17.73;64.73
65557;BME280;52200;53.490;14.376;2023-06-14T05:36:37;101805.00;;;17.76;64.81
65557;BME280;52200;53.490;14.376;2023-06-14T05:39:03;101809.13;;;17.80;64.63
65557;BME280;52200;53.490;14.376;2023-06-14T05:41:29;101794.03;;;17.93;63.65
65557;BME280;52200;53.490;14.376;2023-06-14T05:43:56;101797.06;;;18.45;61.86
65557;BME280;52200;53.490;14.376;2023-06-14T05:46:22;101798.03;;;18.43;60.97
65557;BME280;52200;53.490;14.376;2023-06-14T05:48:51;101809.13;;;19.04;60.73
65557;BME280;52200;53.490;14.376;2023-06-14T05:51:16;101805.09;;;19.17;59.46
65557;BME280;52200;53.490;14.376;2023-06-14T05:53:50;101808.44;;;19.19;59.00
65557;BME280;52200;53.490;14.376;2023-06-14T05:56:17;101818.78;;;19.37;59.54
65557;BME280;52200;53.490;14.376;2023-06-14T05:58:43;101815.97;;;20.83;55.82
65557;BME280;52200;53.490;14.376;2023-06-14T06:01:09;101818.50;;;21.65;53.57
65557;BME280;52200;53.490;14.376;2023-06-14T06:03:34;101816.94;;;22.52;51.24
65557;BME280;52200;53.490;14.376;2023-06-14T06:06:00;101820.56;;;23.62;49.52
65557;BME280;52200;53.490;14.376;2023-06-14T06:08:26;101822.66;;;24.23;47.21
65557;BME280;52200;53.490;14.376;2023-06-14T06:10:52;101816.53;;;24.75;45.84
65557;BME280;52200;53.490;14.376;2023-06-14T06:13:17;101820.66;;;24.78;45.37
65557;BME280;52200;53.490;14.376;2023-06-14T06:15:42;101815.56;;;25.98;44.55
65557;BME280;52200;53.490;14.376;2023-06-14T06:18:08;101813.34;;;27.39;41.82
65557;BME280;52200;53.490;14.376;2023-06-14T06:20:33;101810.31;;;26.45;42.23
65557;BME280;52200;53.490;14.376;2023-06-14T06:22:59;101820.84;;;25.25;43.45
65557;BME280;52200;53.490;14.376;2023-06-14T06:25:26;101819.31;;;25.09;44.42
65557;BME280;52200;53.490;14.376;2023-06-14T06:27:57;101814.25;;;26.03;43.02
65557;BME280;52200;53.490;14.376;2023-06-14T06:30:23;101813.03;;;25.85;43.12
65557;BME280;52200;53.490;14.376;2023-06-14T06:32:48;101813.53;;;25.90;42.30
65557;BME280;52200;53.490;14.376;2023-06-14T06:35:14;101803.53;;;26.87;41.81
65557;BME280;52200;53.490;14.376;2023-06-14T06:37:41;101809.03;;;27.82;40.74
65557;BME280;52200;53.490;14.376;2023-06-14T06:40:07;101811.38;;;26.31;41.62
65557;BME280;52200;53.490;14.376;2023-06-14T06:42:34;101810.94;;;24.43;42.13
65557;BME280;52200;53.490;14.376;2023-06-14T06:44:59;101813.44;;;22.53;43.99
65557;BME280;52200;53.490;14.376;2023-06-14T06:47:24;101810.81;;;21.47;46.27
65557;BME280;52200;53.490;14.376;2023-06-14T06:49:50;101814.75;;;20.90;47.33
65557;BME280;52200;53.490;14.376;2023-06-14T06:52:15;101817.84;;;20.46;48.73
65557;BME280;52200;53.490;14.376;2023-06-14T06:54:41;101816.13;;;20.80;48.69
65557;BME280;52200;53.490;14.376;2023-06-14T06:57:06;101804.59;;;20.70;47.42
65557;BME280;52200;53.490;14.376;2023-06-14T06:59:32;101812.38;;;20.52;47.63
65557;BME280;52200;53.490;14.376;2023-06-14T07:01:58;101814.69;;;20.06;47.98
65557;BME280;52200;53.490;14.376;2023-06-14T07:04:23;101819.66;;;20.44;49.41
65557;BME280;52200;53.490;14.376;2023-06-14T07:06:49;101814.47;;;20.79;49.01
65557;BME280;52200;53.490;14.376;2023-06-14T07:09:14;101814.47;;;21.11;47.93
65557;BME280;52200;53.490;14.376;2023-06-14T07:11:44;101817.50;;;21.19;47.37
65557;BME280;52200;53.490;14.376;2023-06-14T07:14:10;101814.16;;;21.17;46.28
65557;BME280;52200;53.490;14.376;2023-06-14T07:16:36;101823.16;;;21.42;46.13
65557;BME280;52200;53.490;14.376;2023-06-14T07:19:02;101819.59;;;21.13;44.99
65557;BME280;52200;53.490;14.376;2023-06-14T07:21:28;101815.81;;;21.18;45.34
65557;BME280;52200;53.490;14.376;2023-06-14T07:23:53;101820.50;;;21.12;44.94
65557;BME280;52200;53.490;14.376;2023-06-14T07:26:19;101815.66;;;20.89;45.27
65557;BME280;52200;53.490;14.376;2023-06-14T07:28:46;101824.25;;;21.06;45.49
65557;BME280;52200;53.490;14.376;2023-06-14T07:31:12;101816.41;;;20.91;44.62
65557;BME280;52200;53.490;14.376;2023-06-14T07:33:37;101826.75;;;20.91;44.57
65557;BME280;52200;53.490;14.376;2023-06-14T07:36:03;101826.50;;;21.12;44.90
65557;BME280;52200;53.490;14.376;2023-06-14T07:38:28;101822.63;;;20.87;44.80
65557;BME280;52200;53.490;14.376;2023-06-14T07:40:54;101824.81;;;20.79;46.03
65557;BME280;52200;53.490;14.376;2023-06-14T07:43:19;101815.56;;;21.07;46.99
65557;BME280;52200;53.490;14.376;2023-06-14T07:45:45;101817.75;;;21.31;45.68
65557;BME280;52200;53.490;14.376;2023-06-14T07:48:11;101819.16;;;21.68;46.53
65557;BME280;52200;53.490;14.376;2023-06-14T07:50:36;101820.97;;;21.82;44.42
65557;BME280;52200;53.490;14.376;2023-06-14T07:53:02;101806.81;;;21.41;43.90
65557;BME280;52200;53.490;14.376;2023-06-14T07:55:27;101808.94;;;21.81;44.96
65557;BME280;52200;53.490;14.376;2023-06-14T07:57:53;101807.63;;;21.74;44.78
65557;BME280;52200;53.490;14.376;2023-06-14T08:00:19;101813.94;;;21.84;45.90
65557;BME280;52200;53.490;14.376;2023-06-14T08:02:45;101806.41;;;21.96;45.14
65557;BME280;52200;53.490;14.376;2023-06-14T08:05:11;101806.78;;;22.04;45.43
65557;BME280;52200;53.490;14.376;2023-06-14T08:07:38;101797.09;;;22.22;45.74
65557;BME280;52200;53.490;14.376;2023-06-14T08:10:07;101812.72;;;22.35;44.62
65557;BME280;52200;53.490;14.376;2023-06-14T08:12:33;101801.00;;;22.29;44.64
65557;BME280;52200;53.490;14.376;2023-06-14T08:14:59;101798.06;;;22.79;46.02
65557;BME280;52200;53.490;14.376;2023-06-14T08:17:25;101796.53;;;23.18;45.08
65557;BME280;52200;53.490;14.376;2023-06-14T08:19:50;101794.13;;;23.42;45.38
65557;BME280;52200;53.490;14.376;2023-06-14T08:22:16;101794.94;;;23.15;46.56
65557;BME280;52200;53.490;14.376;2023-06-14T08:24:41;101808.09;;;23.27;44.98
65557;BME280;52200;53.490;14.376;2023-06-14T08:27:07;101795.00;;;22.86;45.54
65557;BME280;52200;53.490;14.376;2023-06-14T08:29:32;101802.75;;;23.01;46.87
65557;BME280;52200;53.490;14.376;2023-06-14T08:31:58;101793.00;;;22.77;48.11
65557;BME280;52200;53.490;14.376;2023-06-14T08:34:23;101796.44;;;22.49;48.82
65557;BME280;52200;53.490;14.376;2023-06-14T08:36:52;101798.00;;;22.66;50.29
65557;BME280;52200;53.490;14.376;2023-06-14T08:39:17;101792.25;;;22.61;49.07
65557;BME280;52200;53.490;14.376;2023-06-14T08:41:46;101790.56;;;22.74;49.83
65557;BME280;52200;53.490;14.376;2023-06-14T08:44:13;101793.06;;;22.76;49.11
65557;BME280;52200;53.490;14.376;2023-06-14T08:46:38;101788.41;;;22.95;49.08
65557;BME280;52200;53.490;14.376;2023-06-14T08:49:06;101795.31;;;23.24;49.25
65557;BME280;52200;53.490;14.376;2023-06-14T08:51:32;101795.91;;;23.00;48.31
65557;BME280;52200;53.490;14.376;2023-06-14T08:54:02;101791.97;;;22.80;49.06
65557;BME280;52200;53.490;14.376;2023-06-14T08:56:30;101782.75;;;23.03;48.17
65557;BME280;52200;53.490;14.376;2023-06-14T08:58:57;101794.22;;;22.99;48.77
65557;BME280;52200;53.490;14.376;2023-06-14T09:01:23;101783.00;;;22.71;48.80
65557;BME280;52200;53.490;14.376;2023-06-14T09:03:50;101777.19;;;23.09;49.62
65557;BME280;52200;53.490;14.376;2023-06-14T09:06:16;101790.34;;;23.06;48.43
65557;BME280;52200;53.490;14.376;2023-06-14T09:08:45;101796.09;;;22.97;48.32
65557;BME280;52200;53.490;14.376;2023-06-14T09:11:12;101793.69;;;22.94;48.94
65557;BME280;52200;53.490;14.376;2023-06-14T09:13:38;101786.50;;;22.84;48.00
65557;BME280;52200;53.490;14.376;2023-06-14T09:16:05;101795.63;;;23.05;48.37
65557;BME280;52200;53.490;14.376;2023-06-14T09:18:35;101792.78;;;22.95;48.72
65557;BME280;52200;53.490;14.376;2023-06-14T09:21:00;101801.44;;;23.08;49.81
65557;BME280;52200;53.490;14.376;2023-06-14T09:23:25;101790.97;;;23.10;47.80
65557;BME280;52200;53.490;14.376;2023-06-14T09:25:51;101809.41;;;23.05;49.01
65557;BME280;52200;53.490;14.376;2023-06-14T09:28:16;101795.81;;;23.16;47.83
65557;BME280;52200;53.490;14.376;2023-06-14T09:30:42;101796.44;;;23.20;48.85
65557;BME280;52200;53.490;14.376;2023-06-14T09:33:07;101789.31;;;23.09;47.98
65557;BME280;52200;53.490;14.376;2023-06-14T09:35:33;101787.75;;;23.21;47.50
65557;BME280;52200;53.490;14.376;2023-06-14T09:37:59;101782.56;;;23.21;47.73
65557;BME280;52200;53.490;14.376;2023-06-14T09:40:24;101782.44;;;23.22;48.73
65557;BME280;52200;53.490;14.376;2023-06-14T09:42:51;101777.50;;;23.32;47.70
65557;BME280;52200;53.490;14.376;2023-06-14T09:45:17;101786.25;;;23.71;48.96
65557;BME280;52200;53.490;14.376;2023-06-14T09:47:49;101783.19;;;23.52;45.05
65557;BME280;52200;53.490;14.376;2023-06-14T09:50:15;101791.09;;;23.76;46.22
65557;BME280;52200;53.490;14.376;2023-06-14T09:52:43;101783.69;;;23.57;46.65
65557;BME280;52200;53.490;14.376;2023-06-14T09:55:12;101786.03;;;23.34;47.41
65557;BME280;52200;53.490;14.376;2023-06-14T09:57:41;101777.50;;;23.32;47.58
65557;BME280;52200;53.490;14.376;2023-06-14T10:00:07;101784.56;;;23.70;45.09
65557;BME280;52200;53.490;14.376;2023-06-14T10:02:38;101765.47;;;23.84;44.09
65557;BME280;52200;53.490;14.376;2023-06-14T10:05:06;101778.59;;;23.95;45.94
65557;BME280;52200;53.490;14.376;2023-06-14T10:07:48;101771.59;;;23.83;45.58
65557;BME280;52200;53.490;14.376;2023-06-14T10:10:17;101761.22;;;23.70;46.41
65557;BME280;52200;53.490;14.376;2023-06-14T10:12:42;101770.78;;;23.82;46.27
65557;BME280;52200;53.490;14.376;2023-06-14T10:15:10;101764.75;;;23.82;45.44
65557;BME280;52200;53.490;14.376;2023-06-14T10:17:47;101763.13;;;23.94;45.53
65557;BME280;52200;53.490;14.376;2023-06-14T10:20:26;101777.00;;;23.80;46.00
65557;BME280;52200;53.490;14.376;2023-06-14T10:23:03;101768.25;;;23.55;44.25
65557;BME280;52200;53.490;14.376;2023-06-14T10:25:33;101768.47;;;23.65;44.66
65557;BME280;52200;53.490;14.376;2023-06-14T10:30:38;101759.81;;;23.92;45.24
65557;BME280;52200;53.490;14.376;2023-06-14T10:33:05;101761.66;;;24.15;44.18
65557;BME280;52200;53.490;14.376;2023-06-14T10:35:32;101744.03;;;24.21;43.86
65557;BME280;52200;53.490;14.376;2023-06-14T10:38:07;101753.25;;;23.99;43.08
65557;BME280;52200;53.490;14.376;2023-06-14T10:40:34;101753.94;;;23.88;43.14
65557;BME280;52200;53.490;14.376;2023-06-14T10:43:00;101744.97;;;23.94;43.17
65557;BME280;52200;53.490;14.376;2023-06-14T10:45:25;101745.56;;;24.49;42.87
65557;BME280;52200;53.490;14.376;2023-06-14T10:47:50;101746.97;;;24.66;42.27
65557;BME280;52200;53.490;14.376;2023-06-14T10:50:27;101745.00;;;24.70;43.39
65557;BME280;52200;53.490;14.376;2023-06-14T10:52:53;101748.00;;;25.01;43.58
65557;BME280;52200;53.490;14.376;2023-06-14T10:55:19;101740.69;;;25.30;41.48
65557;BME280;52200;53.490;14.376;2023-06-14T10:57:54;101742.41;;;25.42;41.69
65557;BME280;52200;53.490;14.376;2023-06-14T11:00:28;101751.91;;;25.55;41.18
65557;BME280;52200;53.490;14.376;2023-06-14T11:05:55;101728.25;;;24.98;41.63
65557;BME280;52200;53.490;14.376;2023-06-14T11:11:31;101736.66;;;25.02;41.99
65557;BME280;52200;53.490;14.376;2023-06-14T11:13:57;101733.69;;;24.45;42.36
65557;BME280;52200;53.490;14.376;2023-06-14T11:16:25;101731.53;;;24.89;42.86
65557;BME280;52200;53.490;14.376;2023-06-14T11:18:51;101736.59;;;25.39;42.70
65557;BME280;52200;53.490;14.376;2023-06-14T11:21:17;101734.75;;;25.28;42.25
65557;BME280;52200;53.490;14.376;2023-06-14T11:23:49;101728.78;;;24.66;42.99
65557;BME280;52200;53.490;14.376;2023-06-14T11:26:15;101730.13;;;24.59;44.49
65557;BME280;52200;53.490;14.376;2023-06-14T11:28:41;101722.84;;;24.27;44.09
65557;BME280;52200;53.490;14.376;2023-06-14T11:31:07;101713.22;;;24.40;43.86
65557;BME280;52200;53.490;14.376;2023-06-14T11:33:33;101711.19;;;24.20;44.14
65557;BME280;52200;53.490;14.376;2023-06-14T11:36:01;101716.09;;;24.11;44.07
65557;BME280;52200;53.490;14.376;2023-06-14T11:38:27;101713.66;;;24.34;44.60
65557;BME280;52200;53.490;14.376;2023-06-14T11:40:52;101721.66;;;24.31;43.64
65557;BME280;52200;53.490;14.376;2023-06-14T11:43:18;101713.28;;;24.14;43.40
65557;BME280;52200;53.490;14.376;2023-06-14T11:45:48;101709.41;;;24.33;43.91
65557;BME280;52200;53.490;14.376;2023-06-14T11:48:13;101719.38;;;24.39;45.06
65557;BME280;52200;53.490;14.376;2023-06-14T11:50:38;101701.63;;;24.33;46.38
65557;BME280;52200;53.490;14.376;2023-06-14T11:53:04;101694.06;;;24.67;46.52
65557;BME280;52200;53.490;14.376;2023-06-14T11:55:38;101690.38;;;24.45;44.53
65557;BME280;52200;53.490;14.376;2023-06-14T11:58:04;101691.00;;;24.49;44.83
65557;BME280;52200;53.490;14.376;2023-06-14T12:00:30;101685.34;;;24.68;45.03
65557;BME280;52200;53.490;14.376;2023-06-14T12:02:56;101688.34;;;24.62;45.73
65557;BME280;52200;53.490;14.376;2023-06-14T12:05:22;101682.78;;;24.42;46.91
65557;BME280;52200;53.490;14.376;2023-06-14T12:07:49;101689.53;;;24.45;46.77
65557;BME280;52200;53.490;14.376;2023-06-14T12:10:15;101690.56;;;24.55;46.69
65557;BME280;52200;53.490;14.376;2023-06-14T12:12:42;101686.00;;;24.46;46.39
65557;BME280;52200;53.490;14.376;2023-06-14T12:15:09;101673.88;;;24.71;46.28
65557;BME280;52200;53.490;14.376;2023-06-14T12:17:36;101687.00;;;24.69;46.26
65557;BME280;52200;53.490;14.376;2023-06-14T12:20:08;101678.16;;;24.59;45.94
65557;BME280;52200;53.490;14.376;2023-06-14T12:27:57;101669.78;;;24.79;45.78
65557;BME280;52200;53.490;14.376;2023-06-14T12:30:22;101680.69;;;24.85;45.20
65557;BME280;52200;53.490;14.376;2023-06-14T12:32:48;101673.31;;;24.54;45.62
65557;BME280;52200;53.490;14.376;2023-06-14T12:35:14;101677.97;;;24.12;46.51
65557;BME280;52200;53.490;14.376;2023-06-14T12:37:40;101677.72;;;24.28;45.89
65557;BME280;52200;53.490;14.376;2023-06-14T12:40:05;101679.81;;;24.23;45.77
65557;BME280;52200;53.490;14.376;2023-06-14T12:42:32;101672.50;;;24.41;46.05
65557;BME280;52200;53.490;14.376;2023-06-14T12:44:59;101677.72;;;24.28;45.25
65557;BME280;52200;53.490;14.376;2023-06-14T12:47:24;101676.63;;;24.06;45.34
65557;BME280;52200;53.490;14.376;2023-06-14T12:49:49;101685.13;;;24.21;44.26
65557;BME280;52200;53.490;14.376;2023-06-14T12:52:15;101680.41;;;24.39;44.42
65557;BME280;52200;53.490;14.376;2023-06-14T12:54:40;101669.03;;;24.90;46.02